sensor_id;sensor_type;location;lat;lon;timestamp;temperature;humidity
60309;DHT22;50313;52.894;6.492;2023-05-28T00:00:52;10.70;99.90
60309;DHT22;50313;52.894;6.492;2023-05-28T00:03:22;10.70;99.90
60309;DHT22;50313;52.894;6.492;2023-05-28T00:05:50;10.70;99.90
60309;DHT22;50313;52.894;6.492;2023-05-28T00:08:15;10.70;99.90
60309;DHT22;50313;52.894;6.492;2023-05-28T00:10:42;10.70;99.90
60309;DHT22;50313;52.894;6.492;2023-05-28T00:13:08;10.70;99.90
60309;DHT22;50313;52.894;6.492;2023-05-28T00:15:34;10.70;99.90
60309;DHT22;50313;52.894;6.492;2023-05-28T00:18:01;10.70;99.90
60309;DHT22;50313;52.894;6.492;2023-05-28T00:20:26;10.70;99.90
60309;DHT22;50313;52.894;6.492;2023-05-28T00:22:52;10.70;99.90
60309;DHT22;50313;52.894;6.492;2023-05-28T00:25:18;10.70;99.90
60309;DHT22;50313;52.894;6.492;2023-05-28T00:27:43;10.70;99.90
60309;DHT22;50313;52.894;6.492;2023-05-28T00:30:09;10.80;99.90
60309;DHT22;50313;52.894;6.492;2023-05-28T00:32:35;10.70;99.90
60309;DHT22;50313;52.894;6.492;2023-05-28T00:35:01;10.70;99.90
60309;DHT22;50313;52.894;6.492;2023-05-28T00:37:27;10.60;99.90
60309;DHT22;50313;52.894;6.492;2023-05-28T00:39:53;10.60;99.90
60309;DHT22;50313;52.894;6.492;2023-05-28T00:42:18;10.60;99.90
60309;DHT22;50313;52.894;6.492;2023-05-28T00:44:44;10.60;99.90
60309;DHT22;50313;52.894;6.492;2023-05-28T00:47:13;10.60;99.90
60309;DHT22;50313;52.894;6.492;2023-05-28T00:49:39;10.60;99.90
60309;DHT22;50313;52.894;6.492;2023-05-28T00:52:05;10.50;99.90
60309;DHT22;50313;52.894;6.492;2023-05-28T00:54:32;10.50;99.90
60309;DHT22;50313;52.894;6.492;2023-05-28T00:56:59;10.50;99.90
60309;DHT22;50313;52.894;6.492;2023-05-28T00:59:25;10.50;99.90
60309;DHT22;50313;52.894;6.492;2023-05-28T01:01:51;10.50;99.90
60309;DHT22;50313;52.894;6.492;2023-05-28T01:04:17;10.50;99.90
60309;DHT22;50313;52.894;6.492;2023-05-28T01:06:43;10.40;99.90
60309;DHT22;50313;52.894;6.492;2023-05-28T01:09:10;10.40;99.90
60309;DHT22;50313;52.894;6.492;2023-05-28T01:11:37;10.50;99.90
60309;DHT22;50313;52.894;6.492;2023-05-28T01:14:05;10.40;99.90
60309;DHT22;50313;52.894;6.492;2023-05-28T01:16:32;10.30;99.90
60309;DHT22;50313;52.894;6.492;2023-05-28T01:18:59;10.30;99.90
60309;DHT22;50313;52.894;6.492;2023-05-28T01:21:25;10.20;99.90
60309;DHT22;50313;52.894;6.492;2023-05-28T01:23:57;10.20;99.90
60309;DHT22;50313;52.894;6.492;2023-05-28T01:26:24;10.20;99.90
60309;DHT22;50313;52.894;6.492;2023-05-28T01:28:51;10.20;99.90
60309;DHT22;50313;52.894;6.492;2023-05-28T01:31:17;10.20;99.90
60309;DHT22;50313;52.894;6.492;2023-05-28T01:33:43;10.30;99.90
60309;DHT22;50313;52.894;6.492;2023-05-28T01:36:21;10.30;99.90
60309;DHT22;50313;52.894;6.492;2023-05-28T01:38:48;10.20;99.90
60309;DHT22;50313;52.894;6.492;2023-05-28T01:41:15;10.40;99.90
60309;DHT22;50313;52.894;6.492;2023-05-28T01:43:42;10.40;99.90
60309;DHT22;50313;52.894;6.492;2023-05-28T01:46:08;10.40;99.90
60309;DHT22;50313;52.894;6.492;2023-05-28T01:48:36;10.40;99.90
60309;DHT22;50313;52.894;6.492;2023-05-28T01:51:03;10.50;99.90
60309;DHT22;50313;52.894;6.492;2023-05-28T01:53:28;10.50;99.90
60309;DHT22;50313;52.894;6.492;2023-05-28T01:55:54;10.50;99.90
60309;DHT22;50313;52.894;6.492;2023-05-28T01:58:22;10.50;99.90
60309;DHT22;50313;52.894;6.492;2023-05-28T02:00:59;10.50;99.90
60309;DHT22;50313;52.894;6.492;2023-05-28T02:03:26;10.60;99.90
60309;DHT22;50313;52.894;6.492;2023-05-28T02:05:52;10.60;99.90
60309;DHT22;50313;52.894;6.492;2023-05-28T02:08:18;10.60;99.90
60309;DHT22;50313;52.894;6.492;2023-05-28T02:10:43;10.60;99.90
60309;DHT22;50313;52.894;6.492;2023-05-28T02:13:09;10.60;99.90
60309;DHT22;50313;52.894;6.492;2023-05-28T02:15:35;10.60;99.90
60309;DHT22;50313;52.894;6.492;2023-05-28T02:18:01;10.60;99.90
60309;DHT22;50313;52.894;6.492;2023-05-28T02:20:27;10.60;99.90
60309;DHT22;50313;52.894;6.492;2023-05-28T02:22:53;10.50;99.90
60309;DHT22;50313;52.894;6.492;2023-05-28T02:25:19;10.50;99.90
60309;DHT22;50313;52.894;6.492;2023-05-28T02:27:47;10.50;99.90
60309;DHT22;50313;52.894;6.492;2023-05-28T02:30:13;10.40;99.90
60309;DHT22;50313;52.894;6.492;2023-05-28T02:32:39;10.40;99.90
60309;DHT22;50313;52.894;6.492;2023-05-28T02:35:06;10.50;99.90
60309;DHT22;50313;52.894;6.492;2023-05-28T02:37:32;10.40;99.90
60309;DHT22;50313;52.894;6.492;2023-05-28T02:39:57;10.40;99.90
60309;DHT22;50313;52.894;6.492;2023-05-28T02:42:23;10.40;99.90
60309;DHT22;50313;52.894;6.492;2023-05-28T02:44:49;10.40;99.90
60309;DHT22;50313;52.894;6.492;2023-05-28T02:47:14;10.40;99.90
60309;DHT22;50313;52.894;6.492;2023-05-28T02:49:43;10.40;99.90
60309;DHT22;50313;52.894;6.492;2023-05-28T02:52:09;10.40;99.90
60309;DHT22;50313;52.894;6.492;2023-05-28T02:54:34;10.40;99.90
60309;DHT22;50313;52.894;6.492;2023-05-28T02:57:00;10.40;99.90
60309;DHT22;50313;52.894;6.492;2023-05-28T02:59:26;10.40;99.90
60309;DHT22;50313;52.894;6.492;2023-05-28T03:01:51;10.50;99.90
60309;DHT22;50313;52.894;6.492;2023-05-28T03:04:20;10.50;99.90
60309;DHT22;50313;52.894;6.492;2023-05-28T03:06:46;10.60;99.90
60309;DHT22;50313;52.894;6.492;2023-05-28T03:09:12;10.60;99.90
60309;DHT22;50313;52.894;6.492;2023-05-28T03:11:38;10.60;99.90
60309;DHT22;50313;52.894;6.492;2023-05-28T03:14:03;10.60;99.90
60309;DHT22;50313;52.894;6.492;2023-05-28T03:16:29;10.70;99.90
60309;DHT22;50313;52.894;6.492;2023-05-28T03:18:58;10.70;99.90
60309;DHT22;50313;52.894;6.492;2023-05-28T03:21:23;10.80;99.90
60309;DHT22;50313;52.894;6.492;2023-05-28T03:23:49;10.70;99.90
60309;DHT22;50313;52.894;6.492;2023-05-28T03:26:15;10.70;99.90
60309;DHT22;50313;52.894;6.492;2023-05-28T03:28:40;10.80;99.90
60309;DHT22;50313;52.894;6.492;2023-05-28T03:31:06;10.80;99.90
60309;DHT22;50313;52.894;6.492;2023-05-28T03:33:32;10.80;99.90
60309;DHT22;50313;52.894;6.492;2023-05-28T03:35:57;10.80;99.90
60309;DHT22;50313;52.894;6.492;2023-05-28T03:38:23;10.70;99.90
60309;DHT22;50313;52.894;6.492;2023-05-28T03:40:49;10.70;99.90
60309;DHT22;50313;52.894;6.492;2023-05-28T03:43:14;10.60;99.90
60309;DHT22;50313;52.894;6.492;2023-05-28T03:45:41;10.50;99.90
60309;DHT22;50313;52.894;6.492;2023-05-28T03:48:06;10.40;99.90
60309;DHT22;50313;52.894;6.492;2023-05-28T03:50:32;10.50;99.90
60309;DHT22;50313;52.894;6.492;2023-05-28T03:52:58;10.40;99.90
60309;DHT22;50313;52.894;6.492;2023-05-28T03:55:23;10.40;99.90
60309;DHT22;50313;52.894;6.492;2023-05-28T03:57:49;10.40;99.90
60309;DHT22;50313;52.894;6.492;2023-05-28T04:00:15;10.40;99.90
60309;DHT22;50313;52.894;6.492;2023-05-28T04:02:41;10.40;99.90
60309;DHT22;50313;52.894;6.492;2023-05-28T04:05:07;10.40;99.90
60309;DHT22;50313;52.894;6.492;2023-05-28T04:07:33;10.30;99.90
60309;DHT22;50313;52.894;6.492;2023-05-28T04:09:59;10.40;99.90
60309;DHT22;50313;52.894;6.492;2023-05-28T04:12:24;10.30;99.90
60309;DHT22;50313;52.894;6.492;2023-05-28T04:14:50;10.30;99.90
60309;DHT22;50313;52.894;6.492;2023-05-28T04:17:16;10.30;99.90
60309;DHT22;50313;52.894;6.492;2023-05-28T04:19:43;10.30;99.90
60309;DHT22;50313;52.894;6.492;2023-05-28T04:22:09;10.30;99.90
60309;DHT22;50313;52.894;6.492;2023-05-28T04:24:35;10.40;99.90
60309;DHT22;50313;52.894;6.492;2023-05-28T04:27:00;10.40;99.90
60309;DHT22;50313;52.894;6.492;2023-05-28T04:29:26;10.40;99.90
60309;DHT22;50313;52.894;6.492;2023-05-28T04:31:56;10.40;99.90
60309;DHT22;50313;52.894;6.492;2023-05-28T04:34:23;10.40;99.90
60309;DHT22;50313;52.894;6.492;2023-05-28T04:36:50;10.40;99.90
60309;DHT22;50313;52.894;6.492;2023-05-28T04:39:17;10.40;99.90
60309;DHT22;50313;52.894;6.492;2023-05-28T04:41:44;10.50;99.90
60309;DHT22;50313;52.894;6.492;2023-05-28T04:44:11;10.50;99.90
60309;DHT22;50313;52.894;6.492;2023-05-28T04:46:42;10.50;99.90
60309;DHT22;50313;52.894;6.492;2023-05-28T04:49:09;10.50;99.90
60309;DHT22;50313;52.894;6.492;2023-05-28T04:51:40;10.50;99.90
60309;DHT22;50313;52.894;6.492;2023-05-28T04:54:07;10.60;99.90
60309;DHT22;50313;52.894;6.492;2023-05-28T04:56:32;10.70;99.90
60309;DHT22;50313;52.894;6.492;2023-05-28T04:58:59;10.80;99.90
60309;DHT22;50313;52.894;6.492;2023-05-28T05:01:24;10.80;99.90
60309;DHT22;50313;52.894;6.492;2023-05-28T05:03:50;10.90;99.90
60309;DHT22;50313;52.894;6.492;2023-05-28T05:06:16;11.00;99.90
60309;DHT22;50313;52.894;6.492;2023-05-28T05:08:42;11.10;99.90
60309;DHT22;50313;52.894;6.492;2023-05-28T05:11:07;11.10;99.90
60309;DHT22;50313;52.894;6.492;2023-05-28T05:13:34;11.20;99.90
60309;DHT22;50313;52.894;6.492;2023-05-28T05:15:59;11.30;99.90
60309;DHT22;50313;52.894;6.492;2023-05-28T05:18:25;11.40;99.90
60309;DHT22;50313;52.894;6.492;2023-05-28T05:20:51;11.40;99.90
60309;DHT22;50313;52.894;6.492;2023-05-28T05:23:23;11.50;99.90
60309;DHT22;50313;52.894;6.492;2023-05-28T05:25:48;11.60;99.90
60309;DHT22;50313;52.894;6.492;2023-05-28T05:28:14;11.70;99.90
60309;DHT22;50313;52.894;6.492;2023-05-28T05:30:40;11.90;99.90
60309;DHT22;50313;52.894;6.492;2023-05-28T05:33:07;12.10;99.90
60309;DHT22;50313;52.894;6.492;2023-05-28T05:35:32;12.20;99.90
60309;DHT22;50313;52.894;6.492;2023-05-28T05:37:58;12.30;99.90
60309;DHT22;50313;52.894;6.492;2023-05-28T05:40:24;12.40;99.90
60309;DHT22;50313;52.894;6.492;2023-05-28T05:42:49;12.50;99.90
60309;DHT22;50313;52.894;6.492;2023-05-28T05:45:15;12.60;99.90
60309;DHT22;50313;52.894;6.492;2023-05-28T05:47:41;12.70;99.90
60309;DHT22;50313;52.894;6.492;2023-05-28T05:50:07;12.80;99.90
60309;DHT22;50313;52.894;6.492;2023-05-28T05:52:33;12.90;99.90
60309;DHT22;50313;52.894;6.492;2023-05-28T05:54:58;13.00;99.90
60309;DHT22;50313;52.894;6.492;2023-05-28T05:57:24;13.10;99.90
60309;DHT22;50313;52.894;6.492;2023-05-28T05:59:51;13.20;99.90
60309;DHT22;50313;52.894;6.492;2023-05-28T06:02:19;13.30;99.90
60309;DHT22;50313;52.894;6.492;2023-05-28T06:04:45;13.30;99.90
60309;DHT22;50313;52.894;6.492;2023-05-28T06:07:10;13.30;99.90
60309;DHT22;50313;52.894;6.492;2023-05-28T06:09:36;13.30;99.90
60309;DHT22;50313;52.894;6.492;2023-05-28T06:12:02;13.30;99.90
60309;DHT22;50313;52.894;6.492;2023-05-28T06:14:28;13.20;99.90
60309;DHT22;50313;52.894;6.492;2023-05-28T06:16:54;13.30;99.90
60309;DHT22;50313;52.894;6.492;2023-05-28T06:19:20;13.30;99.90
60309;DHT22;50313;52.894;6.492;2023-05-28T06:21:46;13.40;99.90
60309;DHT22;50313;52.894;6.492;2023-05-28T06:24:12;13.40;99.90
60309;DHT22;50313;52.894;6.492;2023-05-28T06:26:38;13.50;99.90
60309;DHT22;50313;52.894;6.492;2023-05-28T06:29:03;13.60;99.90
60309;DHT22;50313;52.894;6.492;2023-05-28T06:31:33;13.70;99.90
60309;DHT22;50313;52.894;6.492;2023-05-28T06:33:59;13.80;99.90
60309;DHT22;50313;52.894;6.492;2023-05-28T06:36:25;13.90;99.90
60309;DHT22;50313;52.894;6.492;2023-05-28T06:38:50;14.10;99.90
60309;DHT22;50313;52.894;6.492;2023-05-28T06:41:16;14.20;99.90
60309;DHT22;50313;52.894;6.492;2023-05-28T06:43:42;14.40;99.90
60309;DHT22;50313;52.894;6.492;2023-05-28T06:46:08;14.60;99.90
60309;DHT22;50313;52.894;6.492;2023-05-28T06:48:33;14.70;99.90
60309;DHT22;50313;52.894;6.492;2023-05-28T06:50:59;14.90;99.90
60309;DHT22;50313;52.894;6.492;2023-05-28T06:53:25;15.00;99.90
60309;DHT22;50313;52.894;6.492;2023-05-28T06:55:51;15.20;99.90
60309;DHT22;50313;52.894;6.492;2023-05-28T06:58:16;15.30;99.90
60309;DHT22;50313;52.894;6.492;2023-05-28T07:00:42;15.50;99.90
60309;DHT22;50313;52.894;6.492;2023-05-28T07:03:08;15.70;99.90
60309;DHT22;50313;52.894;6.492;2023-05-28T07:05:34;15.80;99.90
60309;DHT22;50313;52.894;6.492;2023-05-28T07:08:02;15.80;99.90
60309;DHT22;50313;52.894;6.492;2023-05-28T07:10:28;16.00;99.90
60309;DHT22;50313;52.894;6.492;2023-05-28T07:12:54;16.00;98.10
60309;DHT22;50313;52.894;6.492;2023-05-28T07:15:19;16.10;97.80
60309;DHT22;50313;52.894;6.492;2023-05-28T07:17:46;15.90;97.50
60309;DHT22;50313;52.894;6.492;2023-05-28T07:20:12;16.00;97.80
60309;DHT22;50313;52.894;6.492;2023-05-28T07:22:39;16.10;97.80
60309;DHT22;50313;52.894;6.492;2023-05-28T07:25:05;16.10;98.00
60309;DHT22;50313;52.894;6.492;2023-05-28T07:27:31;16.30;98.30
60309;DHT22;50313;52.894;6.492;2023-05-28T07:29:57;16.40;98.30
60309;DHT22;50313;52.894;6.492;2023-05-28T07:32:23;16.50;97.40
60309;DHT22;50313;52.894;6.492;2023-05-28T07:34:51;16.50;97.20
60309;DHT22;50313;52.894;6.492;2023-05-28T07:37:16;16.40;96.90
60309;DHT22;50313;52.894;6.492;2023-05-28T07:39:42;16.90;97.70
60309;DHT22;50313;52.894;6.492;2023-05-28T07:42:08;17.00;96.80
60309;DHT22;50313;52.894;6.492;2023-05-28T07:44:33;17.00;96.90
60309;DHT22;50313;52.894;6.492;2023-05-28T07:46:59;17.10;96.50
60309;DHT22;50313;52.894;6.492;2023-05-28T07:49:25;17.10;96.80
60309;DHT22;50313;52.894;6.492;2023-05-28T07:51:54;17.20;97.10
60309;DHT22;50313;52.894;6.492;2023-05-28T07:54:19;17.20;97.30
60309;DHT22;50313;52.894;6.492;2023-05-28T07:56:45;17.50;97.20
60309;DHT22;50313;52.894;6.492;2023-05-28T07:59:11;17.60;96.20
60309;DHT22;50313;52.894;6.492;2023-05-28T08:01:37;17.80;96.90
60309;DHT22;50313;52.894;6.492;2023-05-28T08:04:02;17.70;95.50
60309;DHT22;50313;52.894;6.492;2023-05-28T08:06:28;17.70;96.10
60309;DHT22;50313;52.894;6.492;2023-05-28T08:08:54;17.70;96.00
60309;DHT22;50313;52.894;6.492;2023-05-28T08:11:20;17.80;95.20
60309;DHT22;50313;52.894;6.492;2023-05-28T08:13:45;18.00;94.20
60309;DHT22;50313;52.894;6.492;2023-05-28T08:16:11;17.90;93.70
60309;DHT22;50313;52.894;6.492;2023-05-28T08:18:37;17.90;94.20
60309;DHT22;50313;52.894;6.492;2023-05-28T08:21:05;18.10;94.10
60309;DHT22;50313;52.894;6.492;2023-05-28T08:23:31;18.10;93.70
60309;DHT22;50313;52.894;6.492;2023-05-28T08:26:01;18.40;93.50
60309;DHT22;50313;52.894;6.492;2023-05-28T08:28:27;18.60;93.50
60309;DHT22;50313;52.894;6.492;2023-05-28T08:30:53;18.70;93.60
60309;DHT22;50313;52.894;6.492;2023-05-28T08:33:19;18.50;92.00
60309;DHT22;50313;52.894;6.492;2023-05-28T08:35:45;18.40;92.90
60309;DHT22;50313;52.894;6.492;2023-05-28T08:38:11;18.30;92.40
60309;DHT22;50313;52.894;6.492;2023-05-28T08:40:40;18.40;93.10
60309;DHT22;50313;52.894;6.492;2023-05-28T08:43:07;18.20;92.40
60309;DHT22;50313;52.894;6.492;2023-05-28T08:45:34;18.30;93.10
60309;DHT22;50313;52.894;6.492;2023-05-28T08:48:00;18.50;92.30
60309;DHT22;50313;52.894;6.492;2023-05-28T08:50:35;18.60;92.90
60309;DHT22;50313;52.894;6.492;2023-05-28T08:53:05;18.80;92.50
60309;DHT22;50313;52.894;6.492;2023-05-28T08:55:34;18.80;93.30
60309;DHT22;50313;52.894;6.492;2023-05-28T08:58:00;18.80;92.80
60309;DHT22;50313;52.894;6.492;2023-05-28T09:00:26;19.00;92.20
60309;DHT22;50313;52.894;6.492;2023-05-28T09:02:52;19.00;91.30
60309;DHT22;50313;52.894;6.492;2023-05-28T09:05:18;18.90;90.60
60309;DHT22;50313;52.894;6.492;2023-05-28T09:07:44;19.20;88.80
60309;DHT22;50313;52.894;6.492;2023-05-28T09:10:11;19.20;88.20
60309;DHT22;50313;52.894;6.492;2023-05-28T09:12:37;19.10;89.00
60309;DHT22;50313;52.894;6.492;2023-05-28T09:15:06;19.30;89.80
60309;DHT22;50313;52.894;6.492;2023-05-28T09:17:37;19.10;89.20
60309;DHT22;50313;52.894;6.492;2023-05-28T09:20:12;19.30;82.10
60309;DHT22;50313;52.894;6.492;2023-05-28T09:22:41;19.50;83.50
60309;DHT22;50313;52.894;6.492;2023-05-28T09:25:07;19.60;81.60
60309;DHT22;50313;52.894;6.492;2023-05-28T09:27:34;19.60;81.50
60309;DHT22;50313;52.894;6.492;2023-05-28T09:30:09;19.70;78.10
60309;DHT22;50313;52.894;6.492;2023-05-28T09:32:35;19.80;80.30
60309;DHT22;50313;52.894;6.492;2023-05-28T09:35:05;20.20;78.60
60309;DHT22;50313;52.894;6.492;2023-05-28T09:37:31;20.20;78.60
60309;DHT22;50313;52.894;6.492;2023-05-28T09:40:04;19.60;72.70
60309;DHT22;50313;52.894;6.492;2023-05-28T09:42:37;20.00;74.50
60309;DHT22;50313;52.894;6.492;2023-05-28T09:45:10;20.10;69.50
60309;DHT22;50313;52.894;6.492;2023-05-28T09:47:43;20.10;71.70
60309;DHT22;50313;52.894;6.492;2023-05-28T09:50:10;20.10;67.90
60309;DHT22;50313;52.894;6.492;2023-05-28T09:52:38;20.20;67.10
60309;DHT22;50313;52.894;6.492;2023-05-28T09:55:06;20.30;66.60
60309;DHT22;50313;52.894;6.492;2023-05-28T09:57:33;20.30;68.30
60309;DHT22;50313;52.894;6.492;2023-05-28T10:00:02;20.10;65.90
60309;DHT22;50313;52.894;6.492;2023-05-28T10:03:02;20.40;67.10
60309;DHT22;50313;52.894;6.492;2023-05-28T10:05:32;20.20;66.00
60309;DHT22;50313;52.894;6.492;2023-05-28T10:08:00;20.30;67.10
60309;DHT22;50313;52.894;6.492;2023-05-28T10:10:31;20.30;65.70
60309;DHT22;50313;52.894;6.492;2023-05-28T10:12:58;20.60;66.10
60309;DHT22;50313;52.894;6.492;2023-05-28T10:15:24;20.60;67.50
60309;DHT22;50313;52.894;6.492;2023-05-28T10:17:51;20.70;66.80
60309;DHT22;50313;52.894;6.492;2023-05-28T10:20:18;20.70;65.80
60309;DHT22;50313;52.894;6.492;2023-05-28T10:22:43;20.70;64.00
60309;DHT22;50313;52.894;6.492;2023-05-28T10:25:09;20.70;65.70
60309;DHT22;50313;52.894;6.492;2023-05-28T10:27:45;20.80;65.30
60309;DHT22;50313;52.894;6.492;2023-05-28T10:30:36;20.50;65.50
60309;DHT22;50313;52.894;6.492;2023-05-28T10:33:11;20.60;65.80
60309;DHT22;50313;52.894;6.492;2023-05-28T10:38:19;20.90;66.70
60309;DHT22;50313;52.894;6.492;2023-05-28T10:40:45;20.80;66.50
60309;DHT22;50313;52.894;6.492;2023-05-28T10:43:40;20.70;65.10
60309;DHT22;50313;52.894;6.492;2023-05-28T10:46:10;21.00;66.60
60309;DHT22;50313;52.894;6.492;2023-05-28T10:48:40;21.10;65.10
60309;DHT22;50313;52.894;6.492;2023-05-28T10:51:07;21.30;68.90
60309;DHT22;50313;52.894;6.492;2023-05-28T10:53:36;21.40;67.60
60309;DHT22;50313;52.894;6.492;2023-05-28T10:56:03;21.70;67.10
60309;DHT22;50313;52.894;6.492;2023-05-28T10:58:33;21.60;65.30
60309;DHT22;50313;52.894;6.492;2023-05-28T11:01:19;21.70;66.30
60309;DHT22;50313;52.894;6.492;2023-05-28T11:03:54;21.40;60.40
60309;DHT22;50313;52.894;6.492;2023-05-28T11:06:20;21.50;61.20
60309;DHT22;50313;52.894;6.492;2023-05-28T11:08:48;21.50;62.10
60309;DHT22;50313;52.894;6.492;2023-05-28T11:11:18;21.50;60.20
60309;DHT22;50313;52.894;6.492;2023-05-28T11:13:48;21.50;60.60
60309;DHT22;50313;52.894;6.492;2023-05-28T11:16:17;21.40;58.40
60309;DHT22;50313;52.894;6.492;2023-05-28T11:19:03;21.70;59.10
60309;DHT22;50313;52.894;6.492;2023-05-28T11:21:29;21.50;57.60
60309;DHT22;50313;52.894;6.492;2023-05-28T11:24:03;21.90;58.20
60309;DHT22;50313;52.894;6.492;2023-05-28T11:26:31;21.70;56.60
60309;DHT22;50313;52.894;6.492;2023-05-28T11:28:57;22.00;55.70
60309;DHT22;50313;52.894;6.492;2023-05-28T11:31:24;22.00;50.20
60309;DHT22;50313;52.894;6.492;2023-05-28T11:33:51;22.10;51.90
60309;DHT22;50313;52.894;6.492;2023-05-28T11:36:18;21.90;50.90
60309;DHT22;50313;52.894;6.492;2023-05-28T11:38:44;21.90;49.70
60309;DHT22;50313;52.894;6.492;2023-05-28T11:41:10;22.30;50.80
60309;DHT22;50313;52.894;6.492;2023-05-28T11:43:38;22.00;48.80
60309;DHT22;50313;52.894;6.492;2023-05-28T11:46:05;21.90;48.80
60309;DHT22;50313;52.894;6.492;2023-05-28T11:48:36;21.90;47.90
60309;DHT22;50313;52.894;6.492;2023-05-28T11:51:02;22.10;47.60
60309;DHT22;50313;52.894;6.492;2023-05-28T11:53:38;22.30;49.90
60309;DHT22;50313;52.894;6.492;2023-05-28T11:56:08;22.20;49.50
60309;DHT22;50313;52.894;6.492;2023-05-28T11:58:34;22.20;44.70
60309;DHT22;50313;52.894;6.492;2023-05-28T12:01:03;22.20;45.70
60309;DHT22;50313;52.894;6.492;2023-05-28T12:03:30;22.50;45.00
60309;DHT22;50313;52.894;6.492;2023-05-28T12:05:56;22.30;46.30
60309;DHT22;50313;52.894;6.492;2023-05-28T12:08:25;22.40;44.20
60309;DHT22;50313;52.894;6.492;2023-05-28T12:10:51;22.30;47.50
60309;DHT22;50313;52.894;6.492;2023-05-28T12:13:17;22.20;46.80
60309;DHT22;50313;52.894;6.492;2023-05-28T12:15:43;22.40;49.30
60309;DHT22;50313;52.894;6.492;2023-05-28T12:18:09;22.70;52.90
60309;DHT22;50313;52.894;6.492;2023-05-28T12:20:53;22.50;50.90
60309;DHT22;50313;52.894;6.492;2023-05-28T12:23:26;22.60;51.80
60309;DHT22;50313;52.894;6.492;2023-05-28T12:26:55;22.90;51.80
60309;DHT22;50313;52.894;6.492;2023-05-28T12:29:26;23.10;51.40
60309;DHT22;50313;52.894;6.492;2023-05-28T12:31:58;23.10;52.10
60309;DHT22;50313;52.894;6.492;2023-05-28T12:34:24;22.70;50.30
60309;DHT22;50313;52.894;6.492;2023-05-28T12:36:50;22.70;52.20
60309;DHT22;50313;52.894;6.492;2023-05-28T12:39:16;23.00;52.80
60309;DHT22;50313;52.894;6.492;2023-05-28T12:41:42;23.10;53.00
60309;DHT22;50313;52.894;6.492;2023-05-28T12:44:07;23.10;51.60
60309;DHT22;50313;52.894;6.492;2023-05-28T12:46:33;23.00;54.00
60309;DHT22;50313;52.894;6.492;2023-05-28T12:48:59;22.90;52.40
60309;DHT22;50313;52.894;6.492;2023-05-28T12:51:25;22.50;55.20
60309;DHT22;50313;52.894;6.492;2023-05-28T12:56:39;22.80;57.50
60309;DHT22;50313;52.894;6.492;2023-05-28T12:59:24;22.90;58.40
60309;DHT22;50313;52.894;6.492;2023-05-28T13:01:51;23.20;57.80
60309;DHT22;50313;52.894;6.492;2023-05-28T13:04:17;23.10;58.00
60309;DHT22;50313;52.894;6.492;2023-05-28T13:06:46;23.40;59.80
60309;DHT22;50313;52.894;6.492;2023-05-28T13:09:13;23.00;61.40
60309;DHT22;50313;52.894;6.492;2023-05-28T13:11:43;22.90;61.00
60309;DHT22;50313;52.894;6.492;2023-05-28T13:14:10;23.10;61.50
60309;DHT22;50313;52.894;6.492;2023-05-28T13:16:36;22.80;61.20
60309;DHT22;50313;52.894;6.492;2023-05-28T13:19:03;22.70;64.30
60309;DHT22;50313;52.894;6.492;2023-05-28T13:21:30;22.80;64.70
60309;DHT22;50313;52.894;6.492;2023-05-28T13:24:01;22.60;64.60
60309;DHT22;50313;52.894;6.492;2023-05-28T13:26:33;22.70;63.40
60309;DHT22;50313;52.894;6.492;2023-05-28T13:29:08;22.70;66.20
60309;DHT22;50313;52.894;6.492;2023-05-28T13:31:35;22.50;66.60
60309;DHT22;50313;52.894;6.492;2023-05-28T13:34:01;22.20;66.50
60309;DHT22;50313;52.894;6.492;2023-05-28T13:36:29;22.40;68.30
60309;DHT22;50313;52.894;6.492;2023-05-28T13:38:55;22.70;68.60
60309;DHT22;50313;52.894;6.492;2023-05-28T13:41:22;23.10;66.60
60309;DHT22;50313;52.894;6.492;2023-05-28T13:43:52;22.90;65.10
60309;DHT22;50313;52.894;6.492;2023-05-28T13:46:21;22.30;68.50
60309;DHT22;50313;52.894;6.492;2023-05-28T13:48:47;22.30;69.10
60309;DHT22;50313;52.894;6.492;2023-05-28T13:51:15;22.70;69.30
60309;DHT22;50313;52.894;6.492;2023-05-28T13:53:41;22.70;67.60
60309;DHT22;50313;52.894;6.492;2023-05-28T13:56:23;22.80;68.50
60309;DHT22;50313;52.894;6.492;2023-05-28T13:58:51;23.10;68.00
60309;DHT22;50313;52.894;6.492;2023-05-28T14:01:17;22.90;68.60
60309;DHT22;50313;52.894;6.492;2023-05-28T14:03:46;23.00;69.50
60309;DHT22;50313;52.894;6.492;2023-05-28T14:06:12;22.90;69.40
60309;DHT22;50313;52.894;6.492;2023-05-28T14:08:52;22.80;69.70
60309;DHT22;50313;52.894;6.492;2023-05-28T14:12:01;23.10;70.40
60309;DHT22;50313;52.894;6.492;2023-05-28T14:18:41;22.60;69.70
60309;DHT22;50313;52.894;6.492;2023-05-28T14:31:38;22.20;70.60
60309;DHT22;50313;52.894;6.492;2023-05-28T14:34:55;22.40;72.00
60309;DHT22;50313;52.894;6.492;2023-05-28T14:41:34;21.90;70.60
60309;DHT22;50313;52.894;6.492;2023-05-28T14:47:47;22.10;70.80
60309;DHT22;50313;52.894;6.492;2023-05-28T14:54:55;22.90;66.60
60309;DHT22;50313;52.894;6.492;2023-05-28T14:57:23;23.00;66.40
60309;DHT22;50313;52.894;6.492;2023-05-28T15:00:08;22.80;68.30
60309;DHT22;50313;52.894;6.492;2023-05-28T15:02:43;22.50;70.10
60309;DHT22;50313;52.894;6.492;2023-05-28T15:05:20;22.50;68.40
60309;DHT22;50313;52.894;6.492;2023-05-28T15:07:54;22.60;66.90
60309;DHT22;50313;52.894;6.492;2023-05-28T15:10:45;22.70;67.00
60309;DHT22;50313;52.894;6.492;2023-05-28T15:13:36;22.40;67.40
60309;DHT22;50313;52.894;6.492;2023-05-28T15:16:52;22.40;67.60
60309;DHT22;50313;52.894;6.492;2023-05-28T15:23:19;22.90;65.80
60309;DHT22;50313;52.894;6.492;2023-05-28T15:26:10;22.50;65.80
60309;DHT22;50313;52.894;6.492;2023-05-28T15:29:16;22.90;65.40
60309;DHT22;50313;52.894;6.492;2023-05-28T15:31:50;22.90;64.70
60309;DHT22;50313;52.894;6.492;2023-05-28T15:37:56;22.50;66.40
60309;DHT22;50313;52.894;6.492;2023-05-28T15:40:46;22.90;65.10
60309;DHT22;50313;52.894;6.492;2023-05-28T15:47:15;22.80;65.70
60309;DHT22;50313;52.894;6.492;2023-05-28T15:54:11;23.00;67.00
60309;DHT22;50313;52.894;6.492;2023-05-28T15:56:48;22.60;69.10
60309;DHT22;50313;52.894;6.492;2023-05-28T15:59:17;23.20;70.90
60309;DHT22;50313;52.894;6.492;2023-05-28T16:02:00;23.10;69.30
60309;DHT22;50313;52.894;6.492;2023-05-28T16:11:12;22.70;70.40
60309;DHT22;50313;52.894;6.492;2023-05-28T16:13:48;22.60;71.50
60309;DHT22;50313;52.894;6.492;2023-05-28T16:16:38;22.10;71.50
60309;DHT22;50313;52.894;6.492;2023-05-28T16:26:51;21.80;73.10
60309;DHT22;50313;52.894;6.492;2023-05-28T16:33:03;21.60;73.90
60309;DHT22;50313;52.894;6.492;2023-05-28T16:35:29;21.80;74.70
60309;DHT22;50313;52.894;6.492;2023-05-28T16:37:58;21.90;75.10
60309;DHT22;50313;52.894;6.492;2023-05-28T16:40:34;22.00;75.10
60309;DHT22;50313;52.894;6.492;2023-05-28T16:43:06;21.20;76.10
60309;DHT22;50313;52.894;6.492;2023-05-28T16:45:36;21.70;75.20